Time;durP1;ratioP1;P1;durP2;ratioP2;P2;SDS_P1;SDS_P2;PMS_P1;PMS_P2;Temp;Humidity;BMP_temperature;BMP_pressure;BME280_temperature;BME280_humidity;BME280_pressure;Samples;Min_cycle;Max_cycle;Signal;HPM_P1;HPM_P2
2022/03/05 00:00:43;;;;;;;17.52;9.45;;;-2.00;85.10;;;;;;4939818;29;20056;-74
2022/03/05 00:03:11;;;;;;;11.23;8.85;;;-1.90;85.70;;;;;;4941680;29;20032;-73
2022/03/05 00:05:38;;;;;;;13.05;10.05;;;-1.90;85.80;;;;;;4939746;29;20050;-74
2022/03/05 00:08:04;;;;;;;15.48;10.38;;;-1.90;86.20;;;;;;4943524;29;20578;-74
2022/03/05 00:10:30;;;;;;;17.60;11.63;;;-1.90;86.10;;;;;;4953245;28;20035;-74
2022/03/05 00:12:57;;;;;;;24.70;16.10;;;-1.90;86.40;;;;;;4951186;29;20050;-74
2022/03/05 00:15:24;;;;;;;15.93;10.05;;;-1.90;86.80;;;;;;4938393;29;20032;-73
2022/03/05 00:17:51;;;;;;;14.20;8.73;;;-2.00;86.60;;;;;;4945773;29;20139;-73
2022/03/05 00:20:18;;;;;;;15.38;9.10;;;-2.10;87.20;;;;;;4946769;29;20035;-73
2022/03/05 00:22:46;;;;;;;14.05;9.30;;;-2.20;87.90;;;;;;4940658;29;20038;-73
2022/03/05 00:25:12;;;;;;;14.65;10.02;;;-2.30;88.60;;;;;;4943693;29;20047;-74
2022/03/05 00:27:40;;;;;;;17.33;10.10;;;-2.40;89.10;;;;;;4945253;29;20508;-73
2022/03/05 00:30:07;;;;;;;14.48;10.07;;;-2.40;90.10;;;;;;4946107;29;20046;-76
2022/03/05 00:32:33;;;;;;;20.15;10.20;;;-2.50;90.70;;;;;;4950286;28;20047;-77
2022/03/05 00:35:00;;;;;;;20.58;11.27;;;-2.50;91.20;;;;;;4941675;29;20473;-74
2022/03/05 00:37:27;;;;;;;15.55;9.98;;;-2.50;91.50;;;;;;4945910;29;20032;-74
2022/03/05 00:39:53;;;;;;;15.00;11.85;;;-2.50;91.60;;;;;;4951979;29;20039;-81
2022/03/05 00:42:19;;;;;;;14.48;11.13;;;-2.50;92.30;;;;;;4945316;29;20043;-74
2022/03/05 00:44:46;;;;;;;15.40;10.00;;;-2.50;92.40;;;;;;4946823;29;20027;-74
2022/03/05 00:47:12;;;;;;;16.00;10.85;;;-2.60;92.80;;;;;;4955367;29;20035;-74
2022/03/05 00:49:38;;;;;;;14.63;10.50;;;-2.60;93.20;;;;;;4947083;29;20038;-73
2022/03/05 00:52:05;;;;;;;13.75;11.27;;;-2.60;93.30;;;;;;4943381;29;20040;-74
2022/03/05 00:54:31;;;;;;;21.88;10.88;;;-2.60;93.70;;;;;;4950122;29;20039;-74
2022/03/05 00:56:57;;;;;;;16.10;11.02;;;-2.60;94.10;;;;;;4946743;28;20035;-74
2022/03/05 00:59:24;;;;;;;15.30;10.13;;;-2.60;94.30;;;;;;4938901;29;20036;-74
2022/03/05 01:01:50;;;;;;;16.42;10.85;;;-2.60;94.40;;;;;;4953796;28;20051;-76
2022/03/05 01:04:17;;;;;;;15.88;11.55;;;-2.50;94.70;;;;;;4946932;29;20129;-74
2022/03/05 01:06:43;;;;;;;17.00;11.95;;;-2.60;94.70;;;;;;4948744;29;20039;-74
2022/03/05 01:09:09;;;;;;;19.88;11.93;;;-2.70;94.70;;;;;;4950667;29;20042;-74
2022/03/05 01:11:37;;;;;;;15.50;11.27;;;-2.70;95.20;;;;;;4947337;29;20496;-75
2022/03/05 01:14:04;;;;;;;16.83;11.90;;;-2.80;95.70;;;;;;4949965;29;20035;-74
2022/03/05 01:16:30;;;;;;;17.02;10.60;;;-2.80;96.20;;;;;;4948809;29;20039;-74
2022/03/05 01:18:56;;;;;;;18.05;11.95;;;-2.80;96.90;;;;;;4951737;29;20035;-74
2022/03/05 01:21:22;;;;;;;12.80;11.45;;;-2.80;97.60;;;;;;4946584;29;20046;-73
2022/03/05 01:23:49;;;;;;;19.50;12.35;;;-2.80;97.40;;;;;;4941610;29;20031;-74
2022/03/05 01:26:15;;;;;;;12.57;10.82;;;-2.80;97.60;;;;;;4938259;28;20047;-74
2022/03/05 01:28:41;;;;;;;26.00;13.00;;;-2.90;97.80;;;;;;4944704;29;20054;-74
2022/03/05 01:31:07;;;;;;;19.80;12.75;;;-2.90;98.60;;;;;;4948047;29;20036;-74
2022/03/05 01:33:33;;;;;;;25.08;12.95;;;-3.00;98.80;;;;;;4941660;29;20043;-73
2022/03/05 01:36:00;;;;;;;17.25;12.27;;;-3.00;99.30;;;;;;4946136;29;20473;-76
2022/03/05 01:38:26;;;;;;;20.95;14.05;;;-3.00;99.70;;;;;;4940323;29;20481;-74
2022/03/05 01:40:52;;;;;;;23.23;14.05;;;-3.00;99.90;;;;;;4940492;29;20508;-78
2022/03/05 01:43:19;;;;;;;21.23;13.50;;;-3.10;99.90;;;;;;4955427;28;20078;-74
2022/03/05 01:45:45;;;;;;;22.33;14.73;;;-3.00;99.90;;;;;;4955383;29;20362;-73
2022/03/05 01:48:11;;;;;;;25.63;14.65;;;-3.10;99.90;;;;;;4953209;29;20497;-74
2022/03/05 01:50:38;;;;;;;22.55;14.65;;;-3.00;99.90;;;;;;4946793;29;20043;-73
2022/03/05 01:53:04;;;;;;;19.17;13.38;;;-3.00;99.90;;;;;;4940875;29;20027;-79
2022/03/05 01:55:34;;;;;;;30.42;15.20;;;-3.00;99.90;;;;;;4959276;28;20054;-74
2022/03/05 01:58:00;;;;;;;26.13;16.02;;;-3.10;99.90;;;;;;4948522;29;20043;-74
2022/03/05 02:00:26;;;;;;;17.50;14.07;;;-3.20;99.90;;;;;;4945620;29;20489;-74
2022/03/05 02:02:52;;;;;;;24.63;14.27;;;-3.20;99.90;;;;;;4955308;28;20040;-78
2022/03/05 02:05:24;;;;;;;25.20;14.43;;;-3.10;99.90;;;;;;4951407;29;20027;-73
2022/03/05 02:07:51;;;;;;;15.70;13.38;;;-3.10;99.90;;;;;;4942574;29;20047;-74
2022/03/05 02:10:17;;;;;;;28.45;15.93;;;-3.10;99.90;;;;;;4954325;28;20039;-73
2022/03/05 02:12:44;;;;;;;27.05;16.85;;;-3.00;99.90;;;;;;4936705;29;20043;-73
2022/03/05 02:15:10;;;;;;;20.85;16.67;;;-3.00;99.90;;;;;;4947464;29;20035;-77
2022/03/05 02:17:37;;;;;;;23.10;16.67;;;-3.10;99.90;;;;;;4939291;29;20052;-76
2022/03/05 02:20:05;;;;;;;24.42;17.27;;;-3.10;99.90;;;;;;4936456;29;20035;-74
2022/03/05 02:22:31;;;;;;;24.75;16.38;;;-3.10;99.90;;;;;;4944821;29;20035;-79
2022/03/05 02:24:59;;;;;;;29.23;17.77;;;-3.10;99.90;;;;;;4952780;29;20050;-75
2022/03/05 02:27:27;;;;;;;29.88;18.30;;;-3.20;99.90;;;;;;4942395;29;20389;-74
2022/03/05 02:29:55;;;;;;;27.10;17.20;;;-3.20;99.90;;;;;;4947109;29;22288;-79
2022/03/05 02:32:22;;;;;;;26.45;16.10;;;-3.20;99.90;;;;;;4938330;29;20032;-74
2022/03/05 02:34:49;;;;;;;24.05;16.20;;;-3.30;99.90;;;;;;4942453;29;20473;-73
2022/03/05 02:37:17;;;;;;;29.05;18.25;;;-3.30;99.90;;;;;;4942982;29;20059;-74
2022/03/05 02:39:46;;;;;;;27.88;19.25;;;-3.30;99.90;;;;;;4947894;29;20397;-74
2022/03/05 02:42:15;;;;;;;34.13;18.35;;;-3.30;99.90;;;;;;4942086;29;20027;-74
2022/03/05 02:44:42;;;;;;;27.90;19.35;;;-3.30;99.90;;;;;;4937297;29;20500;-73
2022/03/05 02:47:08;;;;;;;27.55;18.92;;;-3.30;99.90;;;;;;4945411;29;20050;-73
2022/03/05 02:49:35;;;;;;;27.17;18.70;;;-3.30;99.90;;;;;;4942039;29;20031;-73
2022/03/05 02:52:02;;;;;;;35.55;19.15;;;-3.30;99.90;;;;;;4944534;29;20031;-72
2022/03/05 02:54:29;;;;;;;25.40;18.30;;;-3.40;99.90;;;;;;4946813;29;20518;-72
2022/03/05 02:56:55;;;;;;;25.98;18.08;;;-3.50;99.90;;;;;;4950189;29;20058;-80
2022/03/05 02:59:21;;;;;;;29.15;19.35;;;-3.50;99.90;;;;;;4941894;29;20396;-75
2022/03/05 03:01:47;;;;;;;31.17;20.40;;;-3.50;99.90;;;;;;4942347;29;20059;-74
2022/03/05 03:04:13;;;;;;;34.20;19.88;;;-3.50;99.90;;;;;;4948092;29;20034;-74
2022/03/05 03:06:40;;;;;;;33.92;21.90;;;-3.50;99.90;;;;;;4949642;29;20062;-75
2022/03/05 03:09:06;;;;;;;35.60;21.35;;;-3.50;99.90;;;;;;4945658;29;20039;-75
2022/03/05 03:11:32;;;;;;;33.13;21.90;;;-3.50;99.90;;;;;;4940633;29;20496;-74
2022/03/05 03:14:00;;;;;;;31.40;21.73;;;-3.50;99.90;;;;;;4945946;29;20042;-74
2022/03/05 03:16:26;;;;;;;30.20;20.50;;;-3.60;99.90;;;;;;4942533;29;20051;-75
2022/03/05 03:18:52;;;;;;;33.90;20.58;;;-3.70;99.90;;;;;;4942023;29;20125;-81
2022/03/05 03:21:18;;;;;;;30.80;20.50;;;-3.80;99.90;;;;;;4945449;29;20481;-76
2022/03/05 03:23:45;;;;;;;33.25;21.70;;;-3.80;99.90;;;;;;4946241;29;20035;-74
2022/03/05 03:26:11;;;;;;;38.22;22.50;;;-3.70;99.90;;;;;;4937642;29;20043;-74
2022/03/05 03:28:37;;;;;;;31.52;21.52;;;-3.70;99.90;;;;;;4942316;29;20034;-75
2022/03/05 03:31:04;;;;;;;35.55;21.85;;;-3.70;99.90;;;;;;4949692;29;20058;-74
2022/03/05 03:33:30;;;;;;;38.17;22.73;;;-3.70;99.90;;;;;;4938117;29;20059;-74
2022/03/05 03:35:56;;;;;;;34.15;21.30;;;-3.80;99.90;;;;;;4943406;29;20032;-76
2022/03/05 03:38:22;;;;;;;31.83;20.45;;;-3.80;99.90;;;;;;4945158;29;20058;-75
2022/03/05 03:40:48;;;;;;;33.97;20.98;;;-3.80;99.90;;;;;;4939571;29;20405;-74
2022/03/05 03:43:15;;;;;;;39.60;20.95;;;-3.90;99.90;;;;;;4951415;29;20046;-74
2022/03/05 03:45:41;;;;;;;33.30;20.02;;;-3.90;99.90;;;;;;4943445;29;20039;-76
2022/03/05 03:48:07;;;;;;;34.13;20.83;;;-4.00;99.90;;;;;;4939453;29;20050;-74
2022/03/05 03:50:34;;;;;;;33.05;20.38;;;-4.00;99.90;;;;;;4944359;29;20043;-75
2022/03/05 03:53:00;;;;;;;32.72;20.45;;;-4.00;99.90;;;;;;4944897;29;20035;-74
2022/03/05 03:55:26;;;;;;;37.90;21.95;;;-3.90;99.90;;;;;;4946978;29;20035;-74
2022/03/05 03:57:53;;;;;;;31.80;20.65;;;-3.90;99.90;;;;;;4943032;29;20040;-75
2022/03/05 04:00:22;;;;;;;29.67;18.67;;;-4.00;99.90;;;;;;4944556;29;20051;-75
2022/03/05 04:02:48;;;;;;;32.28;20.88;;;-4.00;99.90;;;;;;4939079;29;20040;-75
2022/03/05 04:05:14;;;;;;;33.45;23.10;;;-4.00;99.90;;;;;;4939455;29;20066;-75
2022/03/05 04:10:29;;;;;;;30.80;20.42;;;-3.90;99.90;;;;;;4949902;29;20039;-75
2022/03/05 04:12:56;;;;;;;40.38;21.65;;;-3.90;99.90;;;;;;4941331;29;20520;-82
2022/03/05 04:15:22;;;;;;;39.38;23.17;;;-4.00;99.90;;;;;;4947516;29;20060;-74
2022/03/05 04:17:50;;;;;;;32.10;20.52;;;-3.90;99.90;;;;;;4942612;29;20052;-75
2022/03/05 04:20:17;;;;;;;37.65;20.88;;;-4.10;99.90;;;;;;4950666;29;20027;-74
2022/03/05 04:22:43;;;;;;;35.63;21.63;;;-4.10;99.90;;;;;;4952839;29;20031;-75
2022/03/05 04:25:10;;;;;;;29.17;20.63;;;-4.10;99.90;;;;;;4940334;29;20581;-75
2022/03/05 04:27:36;;;;;;;31.15;21.45;;;-4.10;99.90;;;;;;4945926;29;20039;-75
2022/03/05 04:30:05;;;;;;;28.80;22.70;;;-4.20;99.90;;;;;;4941894;28;20062;-75
2022/03/05 04:32:32;;;;;;;33.88;20.85;;;-4.20;99.90;;;;;;4937877;29;20043;-75
2022/03/05 04:34:58;;;;;;;30.92;20.63;;;-4.20;99.90;;;;;;4940489;29;20034;-75
2022/03/05 04:37:25;;;;;;;27.35;20.83;;;-4.20;99.90;;;;;;4938609;29;20043;-75
2022/03/05 04:39:51;;;;;;;29.42;20.17;;;-4.20;99.90;;;;;;4953774;29;20035;-75
2022/03/05 04:42:17;;;;;;;35.10;22.23;;;-4.30;99.90;;;;;;4954309;28;20378;-74
2022/03/05 04:44:43;;;;;;;36.30;21.73;;;-4.30;99.90;;;;;;4937047;29;20044;-75
2022/03/05 04:47:10;;;;;;;28.73;20.55;;;-4.30;99.90;;;;;;4939022;29;20031;-75
2022/03/05 04:49:36;;;;;;;38.58;20.88;;;-4.30;99.90;;;;;;4938586;29;20477;-75
2022/03/05 04:52:02;;;;;;;30.90;21.88;;;-4.30;99.90;;;;;;4948647;29;20040;-75
2022/03/05 04:54:30;;;;;;;45.15;21.48;;;-4.30;99.90;;;;;;4947874;29;20035;-75
2022/03/05 04:56:57;;;;;;;29.67;19.77;;;-4.30;99.90;;;;;;4944568;29;20040;-81
2022/03/05 04:59:23;;;;;;;40.90;20.10;;;-4.40;99.90;;;;;;4956909;29;20043;-75
2022/03/05 05:01:50;;;;;;;35.10;20.90;;;-4.50;99.90;;;;;;4944055;29;20063;-74
2022/03/05 05:04:16;;;;;;;34.00;21.58;;;-4.40;99.90;;;;;;4950793;29;20035;-75
2022/03/05 05:06:42;;;;;;;37.00;20.58;;;-4.40;99.90;;;;;;4954029;29;20031;-75
2022/03/05 05:09:08;;;;;;;29.65;19.58;;;-4.50;99.90;;;;;;4956733;29;20473;-75
2022/03/05 05:11:34;;;;;;;31.65;20.40;;;-4.60;99.90;;;;;;4946300;29;20043;-75
2022/03/05 05:14:01;;;;;;;31.35;20.52;;;-4.60;99.90;;;;;;4939125;29;20469;-75
2022/03/05 05:16:27;;;;;;;44.47;21.63;;;-4.50;99.90;;;;;;4956443;29;20039;-75
2022/03/05 05:21:45;;;;;;;31.55;20.77;;;-4.40;99.90;;;;;;4946922;29;20048;-75
2022/03/05 05:24:12;;;;;;;39.28;21.77;;;-4.50;99.90;;;;;;4940637;29;20039;-75
2022/03/05 05:26:38;;;;;;;33.22;20.30;;;-4.60;99.90;;;;;;4950289;29;20019;-75
2022/03/05 05:29:05;;;;;;;34.08;21.98;;;-4.60;99.90;;;;;;4938321;28;20047;-75
2022/03/05 05:31:31;;;;;;;33.58;21.50;;;-4.70;99.90;;;;;;4940183;29;20039;-75
2022/03/05 05:33:57;;;;;;;38.10;21.23;;;-4.60;99.90;;;;;;4937826;29;20043;-80
2022/03/05 05:36:24;;;;;;;35.58;21.20;;;-4.60;99.90;;;;;;4936138;29;20054;-75
2022/03/05 05:38:50;;;;;;;33.28;20.77;;;-4.70;99.90;;;;;;4943176;29;20047;-75
2022/03/05 05:41:18;;;;;;;29.80;20.83;;;-4.70;99.90;;;;;;4939264;29;20030;-75
2022/03/05 05:43:44;;;;;;;34.03;20.08;;;-4.80;99.90;;;;;;4941183;29;20042;-75
2022/03/05 05:46:11;;;;;;;28.33;20.35;;;-4.80;99.90;;;;;;4935179;29;20043;-75
2022/03/05 05:48:37;;;;;;;33.33;22.15;;;-4.90;99.90;;;;;;4937688;29;20055;-75
2022/03/05 05:51:04;;;;;;;33.17;21.80;;;-4.80;99.90;;;;;;4929314;29;20048;-75
2022/03/05 05:53:30;;;;;;;34.35;19.73;;;-4.90;99.90;;;;;;4934521;29;20036;-75
2022/03/05 05:55:56;;;;;;;40.03;20.52;;;-4.90;99.90;;;;;;4935350;29;20043;-81
2022/03/05 05:58:23;;;;;;;31.77;19.25;;;-4.90;99.90;;;;;;4946305;29;20036;-75
2022/03/05 06:00:50;;;;;;;36.20;20.80;;;-4.80;99.90;;;;;;4950369;29;20062;-77
2022/03/05 06:03:16;;;;;;;32.20;21.90;;;-4.80;99.90;;;;;;4944730;29;20028;-79
2022/03/05 06:05:43;;;;;;;33.05;21.15;;;-4.80;99.90;;;;;;4935472;29;20032;-75
2022/03/05 06:08:09;;;;;;;30.60;20.75;;;-4.80;99.90;;;;;;4936687;29;20551;-75
2022/03/05 06:10:35;;;;;;;33.22;20.98;;;-4.70;99.90;;;;;;4935494;29;20034;-76
2022/03/05 06:13:01;;;;;;;35.10;20.02;;;-4.80;99.90;;;;;;4940414;29;20369;-76
2022/03/05 06:15:28;;;;;;;35.65;21.35;;;-4.70;99.90;;;;;;4948696;28;20042;-75
2022/03/05 06:17:56;;;;;;;29.50;21.42;;;-4.70;99.90;;;;;;4934985;29;20039;-76
2022/03/05 06:20:23;;;;;;;37.10;22.40;;;-4.70;99.90;;;;;;4943253;29;20032;-75
2022/03/05 06:22:49;;;;;;;33.92;21.33;;;-4.60;99.90;;;;;;4939582;29;20066;-76
2022/03/05 06:25:19;;;;;;;38.63;23.73;;;-4.70;99.90;;;;;;4941914;29;20038;-76
2022/03/05 06:27:45;;;;;;;40.45;22.67;;;-4.60;99.90;;;;;;4945695;29;20397;-76
2022/03/05 06:30:13;;;;;;;37.03;23.58;;;-4.60;99.90;;;;;;4937162;29;20039;-76
2022/03/05 06:32:39;;;;;;;37.42;22.40;;;-4.50;99.90;;;;;;4951182;29;20040;-77
2022/03/05 06:35:06;;;;;;;35.17;21.17;;;-4.60;99.90;;;;;;4945877;29;20063;-76
2022/03/05 06:37:32;;;;;;;28.02;20.45;;;-4.50;99.90;;;;;;4947927;29;20046;-77
2022/03/05 06:39:59;;;;;;;28.33;21.40;;;-4.40;99.90;;;;;;4953677;29;20043;-82
2022/03/05 06:42:26;;;;;;;35.05;21.42;;;-4.30;99.90;;;;;;4952288;29;20031;-77
2022/03/05 06:44:52;;;;;;;38.33;24.67;;;-4.30;99.90;;;;;;4950120;28;20032;-77
2022/03/05 06:47:18;;;;;;;35.45;24.08;;;-4.20;99.90;;;;;;4941772;29;20019;-75
2022/03/05 06:49:45;;;;;;;35.88;22.95;;;-4.00;99.90;;;;;;4944418;29;20500;-74
2022/03/05 06:52:11;;;;;;;29.08;19.38;;;-3.20;99.90;;;;;;4943634;29;20027;-75
2022/03/05 06:54:37;;;;;;;32.72;18.95;;;-2.30;99.90;;;;;;4945042;28;20028;-75
2022/03/05 06:57:04;;;;;;;25.13;18.55;;;-1.60;99.90;;;;;;4944105;29;20036;-76
2022/03/05 06:59:30;;;;;;;23.65;16.17;;;-0.80;99.90;;;;;;4945120;29;20370;-76
2022/03/05 07:01:56;;;;;;;24.55;16.13;;;0.10;95.20;;;;;;4943592;28;20062;-78
2022/03/05 07:04:22;;;;;;;22.15;15.48;;;0.90;91.50;;;;;;4943337;28;20043;-76
2022/03/05 07:06:49;;;;;;;16.60;13.88;;;1.50;85.80;;;;;;4945638;28;20454;-76
2022/03/05 07:09:15;;;;;;;20.95;14.90;;;1.90;80.40;;;;;;4945921;28;20038;-77
2022/03/05 07:11:41;;;;;;;16.15;14.35;;;1.60;78.80;;;;;;4944852;29;20035;-77
2022/03/05 07:14:07;;;;;;;14.52;13.00;;;1.50;79.90;;;;;;4943381;28;20409;-76
2022/03/05 07:16:33;;;;;;;19.17;14.88;;;1.60;78.90;;;;;;4944804;28;20477;-77
2022/03/05 07:19:00;;;;;;;21.23;15.27;;;1.50;79.10;;;;;;4943016;29;20043;-78
2022/03/05 07:21:26;;;;;;;19.58;15.63;;;1.50;79.40;;;;;;4944916;28;20039;-76
2022/03/05 07:23:52;;;;;;;15.70;14.05;;;1.40;79.60;;;;;;4942732;28;20046;-77
2022/03/05 07:26:18;;;;;;;23.77;17.60;;;1.40;80.70;;;;;;4946063;28;20054;-76
2022/03/05 07:28:46;;;;;;;18.67;16.30;;;1.30;82.00;;;;;;4946619;28;20046;-76
2022/03/05 07:31:12;;;;;;;26.83;17.27;;;1.50;82.10;;;;;;4944371;29;20048;-75
2022/03/05 07:33:38;;;;;;;20.65;17.67;;;1.50;82.20;;;;;;4948620;28;20043;-76
2022/03/05 07:36:05;;;;;;;18.77;16.33;;;1.70;81.10;;;;;;4948381;28;20491;-76
2022/03/05 07:38:33;;;;;;;27.20;18.88;;;1.60;81.50;;;;;;4946837;28;20039;-75
2022/03/05 07:40:59;;;;;;;19.92;17.77;;;1.40;83.40;;;;;;4944730;28;20035;-78
2022/03/05 07:43:26;;;;;;;22.42;16.80;;;1.50;82.60;;;;;;4939321;28;20035;-76
2022/03/05 07:45:52;;;;;;;20.27;16.52;;;1.60;82.80;;;;;;4943103;28;20043;-79
2022/03/05 07:48:22;;;;;;;20.42;17.77;;;1.90;81.90;;;;;;4941257;29;20458;-76
2022/03/05 07:50:49;;;;;;;28.80;19.13;;;1.60;82.10;;;;;;4943488;28;20028;-76
2022/03/05 07:53:16;;;;;;;20.40;17.15;;;1.50;82.70;;;;;;4941657;28;20099;-75
2022/03/05 07:55:42;;;;;;;18.90;16.55;;;1.70;82.30;;;;;;4942993;28;20042;-75
2022/03/05 07:58:08;;;;;;;20.13;17.15;;;1.90;82.60;;;;;;4939744;28;20061;-76
2022/03/05 08:00:35;;;;;;;18.98;17.10;;;2.50;80.10;;;;;;4940584;28;20052;-76
2022/03/05 08:03:01;;;;;;;19.40;17.30;;;2.70;79.40;;;;;;4940023;28;20039;-75
2022/03/05 08:05:27;;;;;;;18.60;16.65;;;2.70;78.90;;;;;;4940249;29;20378;-76
2022/03/05 08:07:56;;;;;;;21.38;16.95;;;3.10;77.40;;;;;;4943112;29;20051;-76
2022/03/05 08:10:23;;;;;;;23.80;16.70;;;2.60;78.00;;;;;;4936984;29;20461;-74
2022/03/05 08:12:49;;;;;;;24.48;17.45;;;2.90;76.70;;;;;;4939829;28;20034;-74
2022/03/05 08:15:15;;;;;;;20.88;16.92;;;2.90;76.70;;;;;;4955691;28;20040;-76
2022/03/05 08:17:57;;;;;;;24.27;17.38;;;2.10;77.40;;;;;;4939647;29;20032;-74
2022/03/05 08:20:25;;;;;;;20.40;17.42;;;2.60;77.60;;;;;;4941605;29;20480;-75
2022/03/05 08:22:51;;;;;;;18.77;16.30;;;2.70;77.50;;;;;;4941589;28;20051;-76
2022/03/05 08:25:18;;;;;;;17.80;16.02;;;3.50;76.20;;;;;;4940624;28;20027;-75
2022/03/05 08:27:45;;;;;;;20.50;17.42;;;3.60;73.90;;;;;;4939163;29;20497;-77
2022/03/05 08:30:12;;;;;;;23.40;17.52;;;3.40;74.00;;;;;;4941854;28;20035;-75
2022/03/05 08:32:38;;;;;;;18.00;16.10;;;3.40;74.90;;;;;;4943827;29;20038;-75
2022/03/05 08:35:06;;;;;;;18.30;15.82;;;3.60;74.50;;;;;;4943550;29;20019;-76
2022/03/05 08:37:33;;;;;;;19.00;16.67;;;4.10;73.90;;;;;;4953126;28;20458;-76
2022/03/05 08:39:59;;;;;;;21.75;15.80;;;4.70;71.20;;;;;;4940758;28;20054;-78
2022/03/05 08:42:25;;;;;;;15.95;14.20;;;5.10;67.90;;;;;;4941342;28;20396;-74
2022/03/05 08:44:52;;;;;;;19.58;14.75;;;5.10;66.50;;;;;;4939302;28;20051;-74
2022/03/05 08:47:18;;;;;;;16.73;14.93;;;5.60;64.70;;;;;;4941041;28;20032;-73
2022/03/05 08:49:44;;;;;;;23.15;14.18;;;6.10;63.20;;;;;;4941494;28;20043;-74
2022/03/05 08:52:11;;;;;;;15.35;13.27;;;6.80;61.10;;;;;;4942212;29;20031;-74
2022/03/05 08:54:37;;;;;;;15.90;13.57;;;5.70;62.60;;;;;;4940293;28;20039;-74
2022/03/05 08:57:04;;;;;;;16.80;15.02;;;5.90;64.10;;;;;;4935861;29;20054;-74
2022/03/05 08:59:30;;;;;;;21.35;14.27;;;6.50;61.30;;;;;;4948115;29;20039;-74
2022/03/05 09:01:56;;;;;;;17.05;12.55;;;6.70;59.60;;;;;;4953524;29;20515;-74
2022/03/05 09:04:22;;;;;;;17.13;12.70;;;6.10;59.00;;;;;;4941708;29;20039;-73
2022/03/05 09:06:49;;;;;;;13.70;10.80;;;6.60;58.70;;;;;;4936195;29;20100;-73
2022/03/05 09:09:15;;;;;;;18.42;11.52;;;7.30;58.80;;;;;;4935678;29;20055;-75
2022/03/05 09:11:41;;;;;;;16.30;12.02;;;8.20;55.00;;;;;;4950931;28;20032;-76
2022/03/05 09:14:08;;;;;;;17.40;11.77;;;8.70;54.80;;;;;;4934933;29;20031;-75
2022/03/05 09:16:39;;;;;;;18.20;13.70;;;8.30;54.00;;;;;;4949600;29;20031;-75
2022/03/05 09:19:06;;;;;;;20.02;13.93;;;9.20;54.40;;;;;;4938605;29;20050;-74
2022/03/05 09:21:34;;;;;;;18.92;13.65;;;10.00;52.10;;;;;;4940829;28;20058;-76
2022/03/05 09:24:01;;;;;;;14.98;12.48;;;10.40;49.30;;;;;;4940225;28;20039;-77
2022/03/05 09:26:28;;;;;;;15.00;12.38;;;7.60;54.10;;;;;;4946654;28;20051;-76
2022/03/05 09:28:54;;;;;;;19.10;13.57;;;8.10;53.50;;;;;;4947000;29;20027;-74
2022/03/05 09:31:20;;;;;;;18.35;12.40;;;9.00;52.90;;;;;;4934757;29;20043;-74
2022/03/05 09:33:46;;;;;;;17.40;13.43;;;10.10;50.40;;;;;;4941852;29;20031;-77
2022/03/05 09:36:13;;;;;;;19.95;14.80;;;10.60;48.90;;;;;;4946720;29;20031;-76
2022/03/05 09:38:39;;;;;;;20.17;17.17;;;9.60;49.70;;;;;;4949271;29;20047;-76
2022/03/05 09:41:06;;;;;;;21.67;15.43;;;9.10;50.90;;;;;;4949370;29;20039;-76
2022/03/05 09:43:34;;;;;;;17.10;13.80;;;8.40;51.90;;;;;;4940645;29;20043;-74
2022/03/05 09:46:02;;;;;;;14.68;11.85;;;9.20;51.40;;;;;;4934965;29;20098;-77
2022/03/05 09:48:30;;;;;;;15.07;12.55;;;10.20;48.40;;;;;;4945767;29;20035;-73
2022/03/05 09:50:57;;;;;;;15.23;12.60;;;10.70;47.40;;;;;;4945586;29;20035;-72
2022/03/05 09:53:30;;;;;;;13.85;11.32;;;10.70;47.10;;;;;;4934248;29;20036;-73
2022/03/05 09:55:58;;;;;;;19.38;13.02;;;10.00;46.40;;;;;;4936072;29;20043;-74
2022/03/05 09:58:24;;;;;;;17.52;13.57;;;9.10;47.80;;;;;;4934939;29;20051;-75
2022/03/05 10:00:51;;;;;;;16.15;12.07;;;7.80;50.00;;;;;;4935356;29;20055;-76
2022/03/05 10:03:18;;;;;;;13.85;11.98;;;7.30;51.40;;;;;;4952935;28;20043;-74
2022/03/05 10:05:44;;;;;;;12.57;11.15;;;7.30;51.70;;;;;;4939460;28;20036;-74
2022/03/05 10:08:15;;;;;;;14.20;10.82;;;7.50;50.40;;;;;;4940835;29;20493;-74
2022/03/05 10:11:01;;;;;;;21.25;12.80;;;7.70;50.10;;;;;;4959613;28;20039;-74
2022/03/05 10:13:32;;;;;;;13.07;10.00;;;7.50;50.40;;;;;;4950190;29;20043;-72
2022/03/05 10:16:05;;;;;;;12.98;9.70;;;7.30;50.30;;;;;;4950404;29;20042;-76
2022/03/05 10:18:39;;;;;;;15.45;10.32;;;7.40;50.00;;;;;;4946956;29;20046;-72
2022/03/05 10:21:07;;;;;;;14.57;10.43;;;7.40;49.20;;;;;;4943042;29;20031;-73
2022/03/05 10:23:47;;;;;;;12.50;11.10;;;7.30;49.70;;;;;;4947259;29;20454;-72
2022/03/05 10:26:15;;;;;;;14.77;10.27;;;7.30;49.50;;;;;;4957925;28;20028;-73
2022/03/05 10:28:41;;;;;;;9.90;8.85;;;6.90;48.10;;;;;;4948744;29;20032;-72
2022/03/05 10:31:10;;;;;;;20.30;10.43;;;7.00;48.70;;;;;;4949365;29;20031;-74
2022/03/05 10:33:47;;;;;;;11.13;8.52;;;6.90;48.50;;;;;;4950000;29;20035;-72
2022/03/05 10:36:21;;;;;;;12.32;10.13;;;6.90;48.50;;;;;;4946600;29;20031;-73
2022/03/05 10:38:56;;;;;;;11.68;8.95;;;7.10;49.00;;;;;;4950233;29;20039;-73
2022/03/05 10:41:34;;;;;;;11.55;9.73;;;7.30;48.50;;;;;;4948097;29;20397;-73
2022/03/05 10:44:04;;;;;;;12.93;10.02;;;7.30;48.90;;;;;;4947104;29;20039;-74
2022/03/05 10:46:41;;;;;;;9.52;7.90;;;7.70;48.10;;;;;;4945273;29;20106;-73
2022/03/05 10:49:20;;;;;;;11.32;7.65;;;7.70;46.30;;;;;;4947804;29;20036;-73
2022/03/05 10:51:48;;;;;;;14.25;7.68;;;7.90;44.90;;;;;;4939705;29;20112;-73
2022/03/05 10:54:40;;;;;;;8.30;6.03;;;7.90;45.30;;;;;;4946574;29;20028;-73
2022/03/05 10:57:16;;;;;;;10.32;7.90;;;7.70;44.00;;;;;;4949666;29;20039;-72
2022/03/05 10:59:55;;;;;;;7.57;6.22;;;7.60;45.20;;;;;;4946613;29;20050;-72
2022/03/05 11:02:22;;;;;;;11.48;8.25;;;7.50;44.90;;;;;;4942220;29;20047;-73
2022/03/05 11:04:50;;;;;;;10.60;7.32;;;7.70;45.70;;;;;;4938129;29;20090;-73
2022/03/05 11:07:18;;;;;;;7.88;7.10;;;8.00;45.40;;;;;;4941596;29;20043;-72
2022/03/05 11:09:47;;;;;;;12.55;7.22;;;8.10;44.50;;;;;;4941173;29;20035;-73
2022/03/05 11:12:18;;;;;;;9.82;7.60;;;8.10;45.00;;;;;;4951902;28;20496;-72
2022/03/05 11:14:50;;;;;;;8.13;7.18;;;7.50;45.50;;;;;;4938245;29;20501;-73
2022/03/05 11:17:17;;;;;;;10.43;7.78;;;7.90;46.10;;;;;;4935697;29;20031;-73
2022/03/05 11:19:43;;;;;;;9.30;6.72;;;7.70;46.30;;;;;;4956740;29;20035;-73
2022/03/05 11:22:11;;;;;;;9.73;6.45;;;7.50;44.60;;;;;;4941536;28;20051;-73
2022/03/05 11:24:42;;;;;;;10.13;6.63;;;7.40;45.90;;;;;;4937311;29;20047;-73
2022/03/05 11:27:13;;;;;;;8.45;5.68;;;7.40;45.40;;;;;;4946221;29;20043;-73
2022/03/05 11:29:54;;;;;;;4.88;3.92;;;7.60;44.90;;;;;;4938032;29;20047;-73
2022/03/05 11:32:21;;;;;;;;;;;7.90;43.50;;;;;;4938278;29;20588;-72
2022/03/05 11:34:49;;;;;;;5.85;4.53;;;7.60;43.20;;;;;;4936474;29;19910;-73
2022/03/05 11:37:16;;;;;;;4.45;3.92;;;7.40;42.90;;;;;;4937653;29;20043;-73
2022/03/05 11:39:42;;;;;;;4.55;4.05;;;7.00;42.80;;;;;;4941712;29;20043;-75
2022/03/05 11:42:09;;;;;;;5.07;3.72;;;7.00;43.20;;;;;;4938062;29;20035;-72
2022/03/05 11:44:40;;;;;;;6.38;4.10;;;6.90;42.70;;;;;;4957659;28;20044;-73
2022/03/05 11:47:18;;;;;;;4.88;3.83;;;7.10;42.60;;;;;;4938340;29;20469;-73
2022/03/05 11:49:59;;;;;;;6.43;4.18;;;7.20;42.20;;;;;;4938094;29;20038;-72
2022/03/05 11:52:43;;;;;;;4.78;3.50;;;7.40;42.00;;;;;;4944332;29;20032;-73
2022/03/05 11:55:15;;;;;;;3.20;2.90;;;7.50;42.10;;;;;;4937727;29;20043;-74
2022/03/05 11:57:50;;;;;;;7.05;3.83;;;7.70;41.10;;;;;;4952838;29;20035;-73
2022/03/05 12:00:28;;;;;;;6.15;3.65;;;7.50;40.80;;;;;;4952574;29;20051;-73
2022/03/05 12:02:59;;;;;;;8.38;3.88;;;7.60;41.30;;;;;;4944292;29;20389;-74
2022/03/05 12:05:37;;;;;;;3.38;2.78;;;7.70;41.40;;;;;;4938148;29;20039;-73
2022/03/05 12:08:08;;;;;;;4.43;3.33;;;7.90;41.00;;;;;;4945385;29;20469;-77
2022/03/05 12:10:38;;;;;;;;;;;8.00;41.00;;;;;;4946331;29;20051;-74
2022/03/05 12:13:14;;;;;;;4.53;3.47;;;8.20;40.80;;;;;;4942814;28;20245;-75
2022/03/05 12:15:43;;;;;;;3.97;3.58;;;8.30;40.90;;;;;;4943666;29;20114;-74
2022/03/05 12:18:14;;;;;;;4.20;3.40;;;8.40;40.10;;;;;;4951665;28;20044;-74
2022/03/05 12:20:43;;;;;;;;;;;8.00;40.70;;;;;;4952205;28;20051;-74
2022/03/05 12:23:11;;;;;;;4.93;3.80;;;8.20;40.60;;;;;;4935063;29;19919;-75
2022/03/05 12:25:41;;;;;;;5.32;4.45;;;8.00;41.50;;;;;;4950640;29;20042;-76
2022/03/05 12:28:19;;;;;;;6.65;4.32;;;7.80;41.20;;;;;;4937693;29;20032;-73
2022/03/05 12:30:46;;;;;;;9.98;4.47;;;7.80;41.40;;;;;;4949604;29;20043;-74
2022/03/05 12:33:14;;;;;;;5.68;4.28;;;7.80;41.00;;;;;;4935157;29;20393;-75
2022/03/05 12:35:43;;;;;;;4.97;3.70;;;7.70;41.30;;;;;;4937047;29;20492;-75
2022/03/05 12:38:14;;;;;;;7.82;4.35;;;7.70;41.30;;;;;;4935672;29;20036;-76
2022/03/05 12:40:41;;;;;;;5.05;4.40;;;8.00;41.70;;;;;;4943616;29;20040;-77
2022/03/05 12:43:08;;;;;;;4.82;4.30;;;8.30;40.90;;;;;;4938904;29;20137;-75